Terminal Aerodrome Forecast
Issued by NWS

Home | Current Version | Previous Version | Text Only | Print | Product List | Glossary On
Versions: 1 2 3 4 5 6 7 8 9 10 11 12 13 14 15 16
931
FTUS45 KRIW 302334
TAFCOD
TAF
KCOD 302334Z 0100/0124 VRB06KT P6SM VCSH BKN080
     FM010200 24007KT P6SM FEW070
     FM011800 14008G16KT P6SM FEW110
     FM012200 VRB10G18KT P6SM VCSH SCT070 BKN090
      AMD LTD TO CLD VIS AND WIND=

USA.gov is the U.S. government's official web portal to all federal, state and local government web resources and services.